ホニアラ の空港の天気 - METARとTAF

ホニアラ国際空港 ( AGGH / HIR ) - ソロモン諸島 ガダルカナル島ホニアラ
飛行場実況気象(Metar)
観測時間05/28 19:00 SBT (05/28 08:00 UTC)
風向・風速静穏 0m/s
視程10km以上
天気現象
少しの雲 雲底高度 490m
全天の8割程度の雲 雲底高度 9140m
気温26℃
湿度89%
気圧1009hPa
METARAGGH 280800Z 00000KT 9999 FEW016 BKN300 26/24 Q1009
過去の天気等 Google飛行場航空写真 Wunderground天気予報

過去48時間のMETAR

飛行場予報(TAF)
発表時間: 5/28 16:10 SBT (5/28 05:10 UTC)
予報対象時間: 28日17時 SBT ~ 29日17時 SBT
風向・風速北北西 3m/s
視程10km以上
少しの雲 雲底高度 550m
TAF AGGH 280510Z 2806/2906 34006KT 9999 FEW018 T 29 26 24 23 Q 1007 1009 1010 1008